International Falls, Minnesota
Current Conditions -  °F | °C
As of 5:55 PM on Wednesday 26 Nov 2014 (Local Time) from KINL Reporting Station
Clear Clear  
Wind Chill: -27°   Ceiling: Unl
Heat Index: -19°   Visibility: 10mi
Dew Point: -22°   Wind: 7mph
Humidity: 79%   Direction: 320°NW
Pressure: 30.38"   Gusts: NA
Location:  48.6°N, 93.4°W
Report Text: KINL 262355Z AUTO 32006KT 10SM CLR M19/M22 A3038 RMK AO2 SLP324 T11941222 11139 21194 51022 $
Loading
Personal Weather Stations






























Interactive Weather Map New forecast layout! Learn more

10-Day Weather Forecast

Advertisements
Track Severe Weather on mobile